Dixon Entrance West - east of Langara: Past 24 Hour Conditions

 

South Moresby - 46147

12:00 AM PST 15 December 2018Buoy position: 51.83N 131.23W
Disclaimer

This table is a summary of hourly weather conditions for the past 24 hours.
Please note that these observations might not always be representative of weather conditions over their associated marine area.

Date / Time
(PST)
Wind(knots) Wave height(m) Wave period(s) Pressure(kPa) Air tempC) Water tempC)
15 December 2018
0:00 S 16 gust 19 4.1 13.0 100.1 8 9
14 December 2018
23:00 SSW 12 gust 16 3.9 14.0 100.1 8 9
22:00 SW 10 gust 14 4.1 12.0 100.1 7 9
21:00 WSW 12 gust 16 4.1 12.0 100.0 7 9
20:00 W 14 gust 18 4.2 11.0 99.9 7 9
19:00 W 18 gust 21 4.5 13.0 99.8 7 9
18:00 WNW 19 gust 25 4.2 11.0 99.7 7 9
17:00 W 21 gust 27 4.4 12.0 99.6 7 9
16:00 WNW 23 gust 31 4.2 11.0 99.5 7 9
15:00 WNW 23 gust 29 4.1 11.0 99.4 7 9
14:00 WNW 25 gust 31 4.1 12.0 99.3 7 9
13:00 WNW 25 gust 31 3.9 11.0 99.2 7 9
12:00 WNW 21 gust 27 4.3 12.0 99.3 7 9
11:00 NW 21 gust 25 4.4 12.0 99.3 6 9
10:00 NW 19 gust 25 3.7 12.0 99.2 6 9
9:00 NW 19 gust 27 4.1 14.0 99.1 6 9
8:00 NW 21 gust 27 4.2 12.0 99.1 6 9
7:00 N/A N/A N/A N/A N/A N/A
6:00 NNW 23 gust 31 4.3 12.0 99.2 5 9
5:00 NNW 23 gust 31 5.1 13.0 99.2 4 9
4:00 NNW 19 gust 23 5.1 13.0 99.4 5 9
3:00 NNW 19 gust 27 5.5 13.0 99.6 5 9
2:00 N 21 gust 29 6.1 14.0 99.6 5 9
1:00 N 19 5.5 14.0 99.8 6 9
0:00 N/A N/A N/A N/A N/A N/A

Zoom-in to make a selection

Map of Pacific - North Coast marine weather areas Middle Nomad - 46004 South Nomad - 46036 Dixon Entrance Central - 46145 South Moresby - 46147 Nanakwa Shoal - 46181 North Hecate Strait - 46183 North Nomad - 46184 South Hecate Strait - 46185 West Sea Otter - 46204 West Dixon Entrance - 46205 East Dellwood - 46207 West Moresby - 46208 Sartine Island Cape St.James Kindakun Rocks Langara Island Masset Municipal Airport Rose Spit Sandspit Airport Bella Bella Airport Bella Coola Airport Bonilla Island Cathedral Point Cumshewa Island Grey Islet Holland Rock Lucy Islands Lightstation Prince Rupert Airport
Legend:
buoy Buoy
land station Land Station

Pacific - North Coast Area

Another Region

What we are doing

Date modified: